Anna Maersk — OXBA2 — position and weather

sailwx.info

Track history (hours):
 
Tides and Currents Weather Stations Pressure Air Temp Water Temp Dewpoint Dewpoint Depression Visibility Wind Speed Wind Dir Waves Ship Positions

Anna Maersk

Last reported at 2018-Jun-24 13:00 UTC. Time now 2018-Jun-24 13:00 UTC.
Position N 37°32' W 028°37'.

Length 352 m; draft 11.6 m.

Type: Ship (hazmat cat A). MMSI: 220199000.

Date/timePositionNaut miles runAvg speedWind from/ knotsBaromVisibWave heightAir tempDewpointWater temp
2018-Jun-24 13:00N 37°32' W 028°37'815.8
2018-Jun-24 12:30N 37°32' W 028°47'815.7
2018-Jun-24 12:00N 37°32' W 028°57'815.4
2018-Jun-24 11:31N 37°31' W 029°07'815.7
2018-Jun-24 11:00N 37°31' W 029°17'815.6
2018-Jun-24 10:30N 37°31' W 029°26'815.4
2018-Jun-24 10:01N 37°30' W 029°36'915.3
2018-Jun-24 09:27N 37°30' W 029°47'715.9
2018-Jun-24 09:00N 37°30' W 029°56'1515.4
2018-Jun-24 08:02N 37°29' W 030°14'013.8
2018-Jun-24 08:00N 37°29' W 030°15'  
2018-Jun-17 01:49N 26°32' W 078°46'0 0.0
2018-Jun-16 18:58N 26°32' W 078°46'0 0.0
2018-Jun-16 18:28N 26°32' W 078°46'0 0.0
2018-Jun-16 17:58N 26°32' W 078°46'0 0.0
2018-Jun-16 17:28N 26°32' W 078°46'0 0.0
2018-Jun-16 16:55N 26°32' W 078°46'0 0.0
2018-Jun-16 16:25N 26°32' W 078°46'0 0.0
2018-Jun-16 15:55N 26°32' W 078°46'64 2.5
2018-Jun-15 14:19N 25°56' W 079°45'3 8.6
2018-Jun-15 14:00N 25°55' W 079°48'5 9.1
2018-Jun-15 13:30N 25°52' W 079°52'5 9.5
2018-Jun-15 13:00N 25°50' W 079°57'5 9.2
2018-Jun-15 12:30N 25°48' W 080°01'5 9.2
2018-Jun-15 12:00N 25°46' W 080°06'3 6.1
2018-Jun-15 11:30N 25°46' W 080°09'0 0.5
2018-Jun-15 11:00N 25°46' W 080°09'0 0.0
2018-Jun-15 10:28N 25°46' W 080°09'0 0.0
2018-Jun-15 09:58N 25°46' W 080°09'0 0.0
2018-Jun-15 09:25N 25°46' W 080°09'0 0.0
2018-Jun-15 08:58N 25°46' W 080°09'0 0.0
2018-Jun-15 08:28N 25°46' W 080°09'0 0.0
2018-Jun-15 07:58N 25°46' W 080°09'0 0.0
2018-Jun-15 07:28N 25°46' W 080°09'0 0.0
2018-Jun-15 06:58N 25°46' W 080°09'0 0.0
2018-Jun-15 06:22N 25°46' W 080°09'0 0.0
2018-Jun-15 05:58N 25°46' W 080°09'0 0.0
2018-Jun-15 05:25N 25°46' W 080°09'0 0.0
2018-Jun-15 04:58N 25°46' W 080°09'0 0.0
2018-Jun-15 04:28N 25°46' W 080°09'0 0.0
2018-Jun-15 03:55N 25°46' W 080°09'0 0.0
2018-Jun-15 03:28N 25°46' W 080°09'0 0.0
2018-Jun-15 02:58N 25°46' W 080°09'0 0.0
2018-Jun-15 02:28N 25°46' W 080°09'0 0.0
2018-Jun-15 01:58N 25°46' W 080°09'0 0.0
2018-Jun-15 01:28N 25°46' W 080°09'0 0.0
2018-Jun-15 00:58N 25°46' W 080°09'0 0.0
2018-Jun-15 00:28N 25°46' W 080°09'0 0.0
2018-Jun-14 23:58N 25°46' W 080°09'0 0.0
2018-Jun-14 23:28N 25°46' W 080°09'0 0.0
2018-Jun-14 22:58N 25°46' W 080°09'0 0.0
2018-Jun-14 22:28N 25°46' W 080°09'0 0.0
2018-Jun-14 21:58N 25°46' W 080°09'0 0.0
2018-Jun-14 21:28N 25°46' W 080°09'0 0.0
2018-Jun-14 20:58N 25°46' W 080°09'0 0.0
2018-Jun-14 20:28N 25°46' W 080°09'0 0.0
2018-Jun-14 19:46N 25°46' W 080°09'0 0.0
2018-Jun-14 19:28N 25°46' W 080°09'0 0.0
2018-Jun-14 18:55N 25°46' W 080°09'0 0.0
2018-Jun-14 18:28N 25°46' W 080°09'0 0.0
2018-Jun-14 17:58N 25°46' W 080°09'0 0.0
2018-Jun-14 17:28N 25°46' W 080°09'0 0.0
2018-Jun-14 16:58N 25°46' W 080°09'0 0.0
2018-Jun-14 16:28N 25°46' W 080°09'0 0.4
2018-Jun-14 16:00N 25°46' W 080°10'0 0.4
2018-Jun-14 15:30N 25°46' W 080°10'2 3.5
2018-Jun-14 15:00N 25°46' W 080°08'5 9.7
2018-Jun-14 14:30N 25°46' W 080°02'1 2.1
2018-Jun-14 14:00N 25°46' W 080°02'3 5.3
2018-Jun-14 13:30N 25°48' W 079°60'4 7.5
2018-Jun-14 13:00N 25°50' W 079°56'  
Track history (hours):
 
Tides and Currents Weather Stations Pressure Air Temp Water Temp Dewpoint Dewpoint Depression Visibility Wind Speed Wind Dir Waves Ship Positions

Anna Maersk

Last reported at 2018-Jun-24 13:00 UTC. Time now 2018-Jun-24 13:00 UTC.
Position N 37°32' W 028°37'.

Length 352 m; draft 11.6 m.

Type: Ship (hazmat cat A). MMSI: 220199000.

Date/timePositionNaut miles runAvg speedWind from/ knotsBaromVisibWave heightAir tempDewpointWater temp
2018-Jun-24 13:00N 37°32' W 028°37'815.8
2018-Jun-24 12:30N 37°32' W 028°47'815.7
2018-Jun-24 12:00N 37°32' W 028°57'815.4
2018-Jun-24 11:31N 37°31' W 029°07'815.7
2018-Jun-24 11:00N 37°31' W 029°17'815.6
2018-Jun-24 10:30N 37°31' W 029°26'815.4
2018-Jun-24 10:01N 37°30' W 029°36'915.3
2018-Jun-24 09:27N 37°30' W 029°47'715.9
2018-Jun-24 09:00N 37°30' W 029°56'1515.4
2018-Jun-24 08:02N 37°29' W 030°14'013.8
2018-Jun-24 08:00N 37°29' W 030°15'  
2018-Jun-17 01:49N 26°32' W 078°46'0 0.0
2018-Jun-16 18:58N 26°32' W 078°46'0 0.0
2018-Jun-16 18:28N 26°32' W 078°46'0 0.0
2018-Jun-16 17:58N 26°32' W 078°46'0 0.0
2018-Jun-16 17:28N 26°32' W 078°46'0 0.0
2018-Jun-16 16:55N 26°32' W 078°46'0 0.0
2018-Jun-16 16:25N 26°32' W 078°46'0 0.0
2018-Jun-16 15:55N 26°32' W 078°46'64 2.5
2018-Jun-15 14:19N 25°56' W 079°45'3 8.6
2018-Jun-15 14:00N 25°55' W 079°48'5 9.1
2018-Jun-15 13:30N 25°52' W 079°52'5 9.5
2018-Jun-15 13:00N 25°50' W 079°57'5 9.2
2018-Jun-15 12:30N 25°48' W 080°01'5 9.2
2018-Jun-15 12:00N 25°46' W 080°06'3 6.1
2018-Jun-15 11:30N 25°46' W 080°09'0 0.5
2018-Jun-15 11:00N 25°46' W 080°09'0 0.0
2018-Jun-15 10:28N 25°46' W 080°09'0 0.0
2018-Jun-15 09:58N 25°46' W 080°09'0 0.0
2018-Jun-15 09:25N 25°46' W 080°09'0 0.0
2018-Jun-15 08:58N 25°46' W 080°09'0 0.0
2018-Jun-15 08:28N 25°46' W 080°09'0 0.0
2018-Jun-15 07:58N 25°46' W 080°09'0 0.0
2018-Jun-15 07:28N 25°46' W 080°09'0 0.0
2018-Jun-15 06:58N 25°46' W 080°09'0 0.0
2018-Jun-15 06:22N 25°46' W 080°09'0 0.0
2018-Jun-15 05:58N 25°46' W 080°09'0 0.0
2018-Jun-15 05:25N 25°46' W 080°09'0 0.0
2018-Jun-15 04:58N 25°46' W 080°09'0 0.0
2018-Jun-15 04:28N 25°46' W 080°09'0 0.0
2018-Jun-15 03:55N 25°46' W 080°09'0 0.0
2018-Jun-15 03:28N 25°46' W 080°09'0 0.0
2018-Jun-15 02:58N 25°46' W 080°09'0 0.0
2018-Jun-15 02:28N 25°46' W 080°09'0 0.0
2018-Jun-15 01:58N 25°46' W 080°09'0 0.0
2018-Jun-15 01:28N 25°46' W 080°09'0 0.0
2018-Jun-15 00:58N 25°46' W 080°09'0 0.0
2018-Jun-15 00:28N 25°46' W 080°09'0 0.0
2018-Jun-14 23:58N 25°46' W 080°09'0 0.0
2018-Jun-14 23:28N 25°46' W 080°09'0 0.0
2018-Jun-14 22:58N 25°46' W 080°09'0 0.0
2018-Jun-14 22:28N 25°46' W 080°09'0 0.0
2018-Jun-14 21:58N 25°46' W 080°09'0 0.0
2018-Jun-14 21:28N 25°46' W 080°09'0 0.0
2018-Jun-14 20:58N 25°46' W 080°09'0 0.0
2018-Jun-14 20:28N 25°46' W 080°09'0 0.0
2018-Jun-14 19:46N 25°46' W 080°09'0 0.0
2018-Jun-14 19:28N 25°46' W 080°09'0 0.0
2018-Jun-14 18:55N 25°46' W 080°09'0 0.0
2018-Jun-14 18:28N 25°46' W 080°09'0 0.0
2018-Jun-14 17:58N 25°46' W 080°09'0 0.0
2018-Jun-14 17:28N 25°46' W 080°09'0 0.0
2018-Jun-14 16:58N 25°46' W 080°09'0 0.0
2018-Jun-14 16:28N 25°46' W 080°09'0 0.4
2018-Jun-14 16:00N 25°46' W 080°10'0 0.4
2018-Jun-14 15:30N 25°46' W 080°10'2 3.5
2018-Jun-14 15:00N 25°46' W 080°08'5 9.7
2018-Jun-14 14:30N 25°46' W 080°02'1 2.1
2018-Jun-14 14:00N 25°46' W 080°02'3 5.3
2018-Jun-14 13:30N 25°48' W 079°60'4 7.5
2018-Jun-14 13:00N 25°50' W 079°56'  

Dump ship's entire track history